< Cyclone 197119 1971 Season Cyclone 197202 >
Cyclone 197120 (MAVIS)
General InformationTrack Information on Google Maps || ResourceGoogle EarthGE AnimationAtom FeedGeoJSON
Detalied Best Track (Time Zone = UTC)
Year Month Day Hour Lat. Long. Pressure (hPa) Wind (kt) Class Image Chart
1971 3 23 00 -16.9 121.3 1003 0 0 -- --
1971 3 23 03 -16.9 120.5 1002 0 0 -- --
1971 3 23 06 -16.9 120.0 1001 0 0 -- --
1971 3 23 09 -16.9 119.5 1000 0 0 -- --
1971 3 23 12 -16.9 119.0 999 0 0 -- --
1971 3 23 15 -16.9 118.5 999 0 0 -- --
1971 3 23 18 -16.9 118.0 998 0 0 -- --
1971 3 23 21 -16.9 117.5 998 0 0 -- --
1971 3 24 00 -16.9 117.1 997 0 0 -- --
1971 3 24 03 -17.0 116.7 997 0 0 -- --
1971 3 24 06 -17.1 116.2 997 0 0 -- --
1971 3 24 09 -17.2 115.7 997 0 0 -- --
1971 3 24 12 -17.3 115.2 997 0 0 -- --
1971 3 24 15 -17.4 114.8 996 0 0 -- --
1971 3 24 18 -17.5 114.4 996 0 0 -- --
1971 3 24 21 -17.7 114.2 996 0 0 -- --
1971 3 25 00 -17.9 114.0 996 0 0 -- --
1971 3 25 03 -18.1 113.8 995 0 0 -- --
1971 3 25 06 -18.4 113.5 994 0 0 -- --
1971 3 25 09 -18.8 112.9 993 0 0 -- --
1971 3 25 12 -19.1 112.5 992 0 0 -- --
1971 3 25 15 -19.4 111.0 990 0 0 -- --
1971 3 25 18 -19.5 110.3 985 0 0 -- --
1971 3 25 21 -19.7 109.5 980 0 0 -- --
1971 3 26 00 -19.9 108.9 975 0 0 -- --
1971 3 26 03 -20.1 108.5 975 0 0 -- --
1971 3 26 06 -20.4 107.9 975 0 0 -- --
1971 3 26 09 -20.7 107.3 975 0 0 -- --
1971 3 26 12 -21.0 106.6 975 0 0 -- --
1971 3 26 15 -21.3 106.0 975 0 0 -- --
1971 3 26 18 -21.6 105.5 975 0 0 -- --
1971 3 26 21 -21.9 105.0 975 0 0 -- --
1971 3 27 00 -22.4 105.3 976 0 0 -- --
1971 3 27 03 -23.2 106.7 977 0 0 -- --
1971 3 27 06 -23.8 107.8 978 0 0 -- --
1971 3 27 09 -24.0 108.5 979 0 0 -- --
1971 3 27 12 -24.4 110.0 981 0 0 -- --
1971 3 27 15 -24.8 111.0 983 0 0 -- --
1971 3 27 18 -25.3 112.0 986 0 0 -- --
1971 3 27 21 -26.1 113.3 988 0 0 -- --
1971 3 28 00 -26.5 114.1 990 0 0 -- --
1971 3 28 03 -27.4 116.0 991 0 0 -- --
1971 3 28 06 -29.0 118.2 992 0 0 -- --
1971 3 28 09 -29.4 120.0 995 0 0 -- --
1971 3 28 12 -29.9 122.0 998 0 0 -- --
1971 3 28 15 -30.4 124.0 1001 0 0 -- --
1971 3 28 18 -30.9 126.0 1004 0 0 -- --
1971 3 28 21 -31.4 128.0 1006 0 0 -- --
1971 3 29 00 -31.2 130.0 1007 0 0 -- --
< Cyclone 197119 1971 Season Cyclone 197202 >

Help